createdAt,value
2018-11-01T00:01:40.503Z,76.00
2018-11-01T00:04:15.795Z,76.50
2018-11-01T00:06:50.100Z,76.40
2018-11-01T00:09:24.621Z,76.40
2018-11-01T00:12:01.643Z,75.70
2018-11-01T00:14:36.596Z,75.20
2018-11-01T00:17:10.814Z,75.30
2018-11-01T00:19:45.008Z,75.70
2018-11-01T00:22:19.216Z,74.80
2018-11-01T00:24:53.646Z,74.70
2018-11-01T00:27:29.032Z,74.80
2018-11-01T00:30:13.886Z,75.00
2018-11-01T00:32:48.572Z,75.40
2018-11-01T00:35:22.484Z,76.10
2018-11-01T00:37:56.705Z,76.40
2018-11-01T00:40:31.112Z,77.10
2018-11-01T00:43:05.573Z,77.40
2018-11-01T00:45:41.266Z,76.90
2018-11-01T00:48:17.658Z,77.90
2018-11-01T00:50:52.650Z,80.00
2018-11-01T00:53:26.765Z,81.40
2018-11-01T00:56:00.822Z,82.90
2018-11-01T00:58:35.145Z,83.50
2018-11-01T01:01:09.831Z,84.30
2018-11-01T01:03:38.392Z,84.20
2018-11-01T01:06:07.007Z,84.40
2018-11-01T01:08:44.968Z,84.60
2018-11-01T01:11:19.381Z,85.00
2018-11-01T01:14:04.356Z,85.40
2018-11-01T01:16:34.188Z,85.70
2018-11-01T01:19:02.708Z,85.50
2018-11-01T01:21:37.703Z,85.30
2018-11-01T01:24:11.857Z,85.30
2018-11-01T01:26:47.243Z,84.90
2018-11-01T01:29:21.431Z,84.80
2018-11-01T01:31:55.853Z,84.80
2018-11-01T01:34:31.949Z,85.60
2018-11-01T01:37:06.611Z,85.30
2018-11-01T01:39:40.808Z,84.20
2018-11-01T01:42:14.906Z,80.30
2018-11-01T01:44:55.436Z,78.30
2018-11-01T01:47:32.399Z,75.80
2018-11-01T01:50:08.002Z,74.30
2018-11-01T01:52:44.204Z,73.50
2018-11-01T01:55:20.280Z,73.40
2018-11-01T01:57:54.385Z,72.70
2018-11-01T02:00:30.897Z,72.50
2018-11-01T02:03:05.363Z,72.30
2018-11-01T02:05:40.816Z,71.90
2018-11-01T02:08:18.836Z,72.20
2018-11-01T02:10:57.698Z,71.90
2018-11-01T02:13:32.622Z,71.60
2018-11-01T02:16:08.951Z,71.30
2018-11-01T02:18:43.240Z,71.80
2018-11-01T02:21:17.486Z,71.60
2018-11-01T02:23:52.152Z,72.00
2018-11-01T02:26:24.066Z,72.60
2018-11-01T02:28:58.952Z,72.30
2018-11-01T02:31:33.243Z,72.50
2018-11-01T02:34:08.472Z,72.80
2018-11-01T02:36:42.857Z,72.90
2018-11-01T02:39:17.149Z,72.90
2018-11-01T02:41:51.365Z,73.20
2018-11-01T02:44:25.303Z,73.50
2018-11-01T02:47:03.242Z,74.10
2018-11-01T02:49:37.511Z,74.50
2018-11-01T02:52:11.817Z,74.40
2018-11-01T02:54:46.221Z,74.80
2018-11-01T02:57:21.464Z,74.80
2018-11-01T02:59:55.624Z,74.60
2018-11-01T03:02:29.835Z,74.60
2018-11-01T03:05:04.295Z,75.10
2018-11-01T03:07:40.667Z,75.90
2018-11-01T03:10:15.399Z,74.80
2018-11-01T03:12:52.093Z,75.50
2018-11-01T03:15:26.559Z,75.60
2018-11-01T03:18:01.507Z,75.20
2018-11-01T03:20:36.499Z,75.30
2018-11-01T03:23:12.529Z,75.60
2018-11-01T03:25:50.745Z,75.40
2018-11-01T03:28:22.744Z,75.50
2018-11-01T03:30:57.673Z,75.70
2018-11-01T03:33:32.099Z,75.80
2018-11-01T03:36:10.115Z,75.60
2018-11-01T03:38:44.309Z,76.00
2018-11-01T03:41:19.414Z,76.10
2018-11-01T03:43:58.116Z,75.90
2018-11-01T03:46:34.407Z,76.00
2018-11-01T03:49:08.417Z,76.20
2018-11-01T03:51:42.808Z,75.90
2018-11-01T03:54:17.940Z,76.10
2018-11-01T03:56:53.225Z,76.40
2018-11-01T03:59:29.642Z,76.00
2018-11-01T04:02:04.470Z,76.10
2018-11-01T04:04:39.040Z,76.20
2018-11-01T04:07:14.271Z,76.50
2018-11-01T04:09:50.096Z,77.10
2018-11-01T04:12:26.558Z,77.50
2018-11-01T04:15:00.952Z,77.90
2018-11-01T04:17:39.360Z,78.00
2018-11-01T04:20:14.735Z,78.40
2018-11-01T04:22:48.865Z,78.70
2018-11-01T04:25:25.286Z,78.40
2018-11-01T04:27:59.391Z,78.70
2018-11-01T04:30:33.546Z,78.70
2018-11-01T04:33:07.759Z,78.70
2018-11-01T04:35:43.109Z,78.70
2018-11-01T04:38:19.329Z,78.50
2018-11-01T04:40:53.647Z,78.70
2018-11-01T04:43:28.073Z,78.10
2018-11-01T04:46:04.333Z,78.30
2018-11-01T04:48:46.925Z,78.50
2018-11-01T04:51:21.767Z,79.00
2018-11-01T04:53:56.016Z,79.40
2018-11-01T04:56:30.580Z,79.40
2018-11-01T04:59:04.849Z,79.70
2018-11-01T05:01:39.129Z,79.80
2018-11-01T05:04:13.482Z,80.00
2018-11-01T05:06:48.685Z,80.20
2018-11-01T05:09:23.020Z,80.50
2018-11-01T05:11:57.341Z,80.70
2018-11-01T05:14:32.644Z,80.80
2018-11-01T05:17:07.054Z,80.70
2018-11-01T05:19:41.122Z,80.80
2018-11-01T05:22:15.498Z,80.90
2018-11-01T05:24:49.817Z,81.20
2018-11-01T05:27:28.238Z,81.40
2018-11-01T05:30:05.388Z,81.20
2018-11-01T05:32:40.079Z,81.10
2018-11-01T05:35:15.176Z,81.70
2018-11-01T05:37:49.563Z,81.40
2018-11-01T05:40:21.666Z,81.60
2018-11-01T05:42:57.609Z,81.70
2018-11-01T05:48:31.282Z,81.80
2018-11-01T05:51:09.185Z,81.70
2018-11-01T05:53:48.087Z,81.70
2018-11-01T05:56:23.078Z,82.00
2018-11-01T06:01:39.089Z,82.10
2018-11-01T06:04:17.437Z,81.90
2018-11-01T06:09:45.311Z,81.90
2018-11-01T06:12:26.508Z,81.90
2018-11-01T06:15:04.216Z,82.10
2018-11-01T06:17:40.069Z,81.80
2018-11-01T06:20:14.124Z,81.60
2018-11-01T06:22:48.643Z,82.30
2018-11-01T06:25:23.041Z,81.70
2018-11-01T06:27:57.207Z,81.80
2018-11-01T06:30:33.669Z,81.30
2018-11-01T06:33:09.858Z,81.10
2018-11-01T06:35:46.788Z,80.40
2018-11-01T06:38:23.010Z,80.40
2018-11-01T06:41:01.454Z,80.60
2018-11-01T06:43:40.542Z,80.60
2018-11-01T06:46:16.479Z,80.50
2018-11-01T06:48:50.834Z,80.00
2018-11-01T06:51:29.460Z,79.90
2018-11-01T06:54:04.671Z,80.20
2018-11-01T06:56:40.926Z,79.40
2018-11-01T06:59:16.389Z,79.40
2018-11-01T07:01:51.704Z,79.30
2018-11-01T07:04:25.872Z,79.20
2018-11-01T07:07:00.326Z,78.80
2018-11-01T07:09:36.727Z,78.80
2018-11-01T07:12:13.132Z,78.70
2018-11-01T07:14:49.424Z,78.50
2018-11-01T07:17:28.089Z,78.10
2018-11-01T07:20:03.377Z,78.40
2018-11-01T07:22:40.694Z,78.20
2018-11-01T07:25:16.818Z,78.40
2018-11-01T07:27:51.777Z,78.70
2018-11-01T07:30:26.483Z,78.20
2018-11-01T07:33:02.963Z,78.20
2018-11-01T07:35:38.167Z,77.90
2018-11-01T07:38:13.419Z,78.10
2018-11-01T07:40:48.673Z,78.30
2018-11-01T07:43:24.777Z,77.80
2018-11-01T07:45:59.230Z,78.30
2018-11-01T07:48:33.975Z,78.60
2018-11-01T07:51:12.300Z,78.90
2018-11-01T07:53:52.555Z,79.70
2018-11-01T07:56:28.821Z,78.50
2018-11-01T07:59:07.549Z,78.70
2018-11-01T08:01:43.954Z,78.70
2018-11-01T08:04:18.320Z,78.70
2018-11-01T08:06:52.588Z,78.30
2018-11-01T08:09:35.354Z,78.80
2018-11-01T08:12:13.301Z,78.50
2018-11-01T08:14:48.680Z,78.40
2018-11-01T08:17:24.032Z,77.90
2018-11-01T08:19:58.594Z,77.50
2018-11-01T08:22:33.824Z,77.00
2018-11-01T08:25:10.624Z,75.30
2018-11-01T08:27:44.778Z,72.10
2018-11-01T08:30:19.250Z,71.50
2018-11-01T08:32:54.861Z,69.90
2018-11-01T08:35:29.194Z,69.10
2018-11-01T08:38:07.572Z,68.20
2018-11-01T08:40:47.984Z,68.00
2018-11-01T08:43:26.810Z,67.10
2018-11-01T08:46:01.294Z,66.20
2018-11-01T08:48:42.486Z,66.70
2018-11-01T08:51:14.916Z,67.30
2018-11-01T08:53:49.691Z,66.60
2018-11-01T08:56:24.905Z,66.60
2018-11-01T08:59:00.242Z,65.80
2018-11-01T09:01:34.800Z,66.30
2018-11-01T09:04:11.257Z,65.10
2018-11-01T09:06:50.007Z,65.10
2018-11-01T09:09:24.001Z,65.10
2018-11-01T09:11:59.315Z,66.30
2018-11-01T09:14:33.834Z,66.50
2018-11-01T09:17:13.159Z,67.10
2018-11-01T09:19:47.429Z,66.40
2018-11-01T09:22:27.989Z,67.00
2018-11-01T09:25:04.255Z,67.40
2018-11-01T09:27:39.393Z,68.00
2018-11-01T09:30:16.452Z,68.40
2018-11-01T09:32:52.674Z,68.00
2018-11-01T09:35:27.869Z,67.30
2018-11-01T09:38:04.124Z,67.80
2018-11-01T09:40:39.422Z,68.40
2018-11-01T09:43:13.645Z,68.10
2018-11-01T09:45:49.256Z,68.10
2018-11-01T09:48:24.495Z,67.30
2018-11-01T09:50:56.848Z,67.10
2018-11-01T09:53:32.341Z,68.00
2018-11-01T09:56:07.484Z,68.60
2018-11-01T09:58:43.939Z,68.70
2018-11-01T10:01:19.212Z,67.80
2018-11-01T10:03:57.395Z,68.60
2018-11-01T10:06:31.960Z,67.60
2018-11-01T10:09:08.035Z,67.80
2018-11-01T10:11:49.291Z,67.90
2018-11-01T10:14:23.991Z,68.70
2018-11-01T10:17:00.950Z,68.90
2018-11-01T10:19:36.964Z,68.80
2018-11-01T10:22:11.251Z,68.80
2018-11-01T10:24:45.801Z,68.10
2018-11-01T10:27:21.380Z,68.00
2018-11-01T10:29:55.729Z,68.40
2018-11-01T10:32:30.843Z,69.00
2018-11-01T10:35:05.529Z,68.50
2018-11-01T10:37:46.885Z,69.30
2018-11-01T10:40:22.095Z,68.40
2018-11-01T10:42:57.193Z,68.90
2018-11-01T10:45:37.885Z,68.50
2018-11-01T10:48:16.836Z,68.10
2018-11-01T10:50:51.906Z,68.30
2018-11-01T10:53:26.239Z,67.60
2018-11-01T10:56:00.817Z,66.90
2018-11-01T10:58:34.947Z,68.00
2018-11-01T11:01:14.612Z,68.90
2018-11-01T11:03:46.470Z,69.50
2018-11-01T11:06:22.023Z,69.70
2018-11-01T11:08:56.533Z,69.60
2018-11-01T11:11:31.277Z,69.90
2018-11-01T11:14:05.816Z,70.10
2018-11-01T11:16:39.999Z,70.20
2018-11-01T11:19:16.402Z,70.60
2018-11-01T11:21:59.554Z,70.60
2018-11-01T11:24:33.661Z,70.20
2018-11-01T11:27:08.269Z,69.00
2018-11-01T11:29:43.206Z,67.70
2018-11-01T11:32:17.723Z,67.30
2018-11-01T11:34:52.126Z,67.70
2018-11-01T11:37:27.246Z,68.00
2018-11-01T11:40:01.429Z,68.00
2018-11-01T11:42:35.813Z,67.10
2018-11-01T11:45:16.232Z,67.80
2018-11-01T11:47:50.962Z,69.50
2018-11-01T11:50:25.527Z,68.60
2018-11-01T11:53:00.595Z,68.80
2018-11-01T11:55:36.406Z,69.00
2018-11-01T11:58:12.771Z,69.20
2018-11-01T12:00:47.669Z,69.60
2018-11-01T12:03:22.000Z,69.00
2018-11-01T12:05:57.791Z,69.40
2018-11-01T12:08:33.841Z,69.20
2018-11-01T12:11:14.643Z,69.60
2018-11-01T12:13:51.483Z,69.80
2018-11-01T12:16:25.815Z,70.30
2018-11-01T12:19:00.321Z,69.90
2018-11-01T12:21:34.637Z,70.50
2018-11-01T12:24:10.020Z,70.50
2018-11-01T12:26:45.661Z,71.20
2018-11-01T12:29:21.678Z,71.40
2018-11-01T12:31:56.064Z,71.80
2018-11-01T12:34:34.767Z,72.00
2018-11-01T12:37:08.969Z,72.00
2018-11-01T12:39:43.259Z,71.20
2018-11-01T12:42:17.635Z,71.80
2018-11-01T12:44:53.921Z,71.20
2018-11-01T12:47:29.071Z,71.50
2018-11-01T12:50:11.214Z,71.90
2018-11-01T12:52:54.004Z,72.20
2018-11-01T12:58:36.522Z,72.00
2018-11-01T13:11:13.957Z,72.50
2018-11-01T13:16:57.359Z,72.90
2018-11-01T13:37:42.405Z,76.60
2018-11-01T13:40:19.608Z,77.30
2018-11-01T13:42:54.697Z,77.90
2018-11-01T13:45:29.968Z,78.00
2018-11-01T13:48:04.446Z,79.20
2018-11-01T13:50:40.373Z,79.00
2018-11-01T13:53:16.693Z,79.30
2018-11-01T13:55:50.943Z,80.50
2018-11-01T13:58:25.087Z,81.30
2018-11-01T14:01:06.635Z,81.60
2018-11-01T14:03:42.833Z,83.70
2018-11-01T14:06:17.725Z,84.00
2018-11-01T14:08:54.042Z,84.50
2018-11-01T14:11:29.182Z,85.50
2018-11-01T14:14:03.464Z,86.10
2018-11-01T14:16:38.480Z,86.60
2018-11-01T14:19:17.484Z,87.30
2018-11-01T14:21:53.552Z,88.10
2018-11-01T14:24:29.648Z,88.70
2018-11-01T14:27:04.658Z,89.80
2018-11-01T14:29:38.986Z,90.30
2018-11-01T14:32:12.861Z,90.70
2018-11-01T14:34:41.378Z,91.00
2018-11-01T14:37:18.186Z,91.30
2018-11-01T14:39:53.205Z,91.50
2018-11-01T14:42:27.270Z,91.70
2018-11-01T14:45:02.798Z,92.30
2018-11-01T14:47:40.964Z,92.70
2018-11-01T14:50:16.083Z,93.10
2018-11-01T14:52:57.119Z,93.00
2018-11-01T14:55:32.519Z,93.70
2018-11-01T14:58:07.494Z,93.90
2018-11-01T15:00:43.999Z,94.20
2018-11-01T15:03:18.571Z,94.30
2018-11-01T15:05:53.443Z,94.60
2018-11-01T15:08:28.691Z,94.80
2018-11-01T15:11:02.906Z,95.20
2018-11-01T15:13:38.024Z,95.40
2018-11-01T15:16:13.367Z,95.60
2018-11-01T15:18:49.973Z,95.90
2018-11-01T15:21:24.505Z,95.90
2018-11-01T15:24:00.020Z,96.00
2018-11-01T15:26:36.251Z,96.40
2018-11-01T15:29:14.246Z,96.20
2018-11-01T15:31:46.520Z,96.50
2018-11-01T15:34:20.801Z,96.40
2018-11-01T15:36:56.930Z,96.50
2018-11-01T15:39:31.467Z,96.60
2018-11-01T15:42:06.305Z,96.70
2018-11-01T15:44:44.579Z,96.70
2018-11-01T15:47:20.456Z,97.00
2018-11-01T15:49:55.532Z,96.90
2018-11-01T15:52:31.795Z,97.10
2018-11-01T15:55:12.125Z,97.30
2018-11-01T15:57:50.285Z,97.50
2018-11-01T16:00:24.991Z,97.60
2018-11-01T16:02:58.946Z,97.80
2018-11-01T16:05:34.703Z,97.80
2018-11-01T16:08:09.369Z,97.90
2018-11-01T16:10:44.622Z,97.90
2018-11-01T16:13:20.109Z,97.80
2018-11-01T16:15:56.039Z,98.00
2018-11-01T16:18:30.694Z,98.10
2018-11-01T16:21:05.538Z,98.10
2018-11-01T16:23:40.700Z,98.20
2018-11-01T16:26:16.663Z,98.20
2018-11-01T16:28:52.185Z,98.30
2018-11-01T16:31:26.877Z,98.10
2018-11-01T16:34:02.447Z,98.30
2018-11-01T16:36:41.484Z,98.10
2018-11-01T16:39:16.217Z,98.20
2018-11-01T16:41:50.644Z,98.40
2018-11-01T16:44:24.896Z,98.40
2018-11-01T16:46:59.014Z,98.40
2018-11-01T16:49:39.546Z,98.40
2018-11-01T16:52:15.664Z,98.50
2018-11-01T16:54:49.817Z,98.50
2018-11-01T16:57:25.039Z,98.70
2018-11-01T17:00:09.757Z,98.80
2018-11-01T17:02:44.486Z,98.80
2018-11-01T17:05:19.595Z,98.80
2018-11-01T17:07:53.562Z,98.80
2018-11-01T17:10:28.768Z,98.80
2018-11-01T17:13:02.871Z,98.80
2018-11-01T17:15:37.089Z,98.80
2018-11-01T17:18:11.139Z,98.70
2018-11-01T17:20:45.391Z,98.70
2018-11-01T17:23:20.616Z,98.90
2018-11-01T17:25:54.933Z,98.90
2018-11-01T17:28:36.621Z,99.00
2018-11-01T17:31:13.525Z,99.00
2018-11-01T17:33:48.937Z,99.00
2018-11-01T17:36:24.089Z,99.10
2018-11-01T17:39:04.917Z,99.10
2018-11-01T17:41:39.788Z,99.10
2018-11-01T17:44:30.153Z,99.10
2018-11-01T17:47:14.987Z,99.10
2018-11-01T17:58:40.328Z,99.10
2018-11-01T18:01:16.486Z,99.10
2018-11-01T18:10:17.447Z,99.20
2018-11-01T18:13:11.027Z,99.10
2018-11-01T18:15:47.521Z,99.10
2018-11-01T18:18:24.127Z,99.20
2018-11-01T18:21:11.065Z,99.10
2018-11-01T18:24:07.041Z,99.10
2018-11-01T18:26:46.153Z,99.10
2018-11-01T18:32:47.287Z,98.90
2018-11-01T18:35:25.875Z,98.90
2018-11-01T18:38:00.989Z,98.90
2018-11-01T20:55:15.758Z,99.00
2018-11-01T21:21:25.503Z,98.70
2018-11-01T21:26:54.909Z,98.40
2018-11-01T21:43:03.572Z,98.40
2018-11-01T21:45:38.842Z,98.60
2018-11-01T21:48:15.604Z,98.70
2018-11-01T21:50:50.404Z,98.70
2018-11-01T21:53:26.715Z,98.70
2018-11-01T21:56:02.141Z,98.80
2018-11-01T21:58:40.554Z,98.80
2018-11-01T22:01:16.203Z,98.60
2018-11-01T22:03:50.645Z,98.60
2018-11-01T22:06:31.071Z,98.60
2018-11-01T22:09:07.664Z,98.60
2018-11-01T22:11:48.139Z,98.50
2018-11-01T22:14:22.374Z,98.50
2018-11-01T22:16:56.626Z,98.40
2018-11-01T22:19:30.842Z,98.60
2018-11-01T22:22:05.328Z,98.60
2018-11-01T22:24:39.730Z,98.40
2018-11-01T22:27:15.033Z,98.50
2018-11-01T22:29:49.356Z,98.60
2018-11-01T22:32:23.725Z,98.70
2018-11-01T22:35:02.881Z,98.70
2018-11-01T22:37:40.243Z,98.70
2018-11-01T22:40:15.515Z,98.70
2018-11-01T22:42:50.736Z,98.70
2018-11-01T22:45:25.837Z,98.80
2018-11-01T22:48:00.820Z,98.90
2018-11-01T22:50:36.065Z,99.00
2018-11-01T22:53:11.225Z,99.10
2018-11-01T22:55:45.881Z,99.20
2018-11-01T22:58:20.145Z,99.30
2018-11-01T23:00:54.343Z,99.30
2018-11-01T23:03:28.597Z,99.30
2018-11-01T23:06:04.087Z,99.30
2018-11-01T23:08:38.565Z,99.30
2018-11-01T23:11:10.472Z,99.20
2018-11-01T23:13:46.435Z,99.10
2018-11-01T23:16:20.888Z,99.10
2018-11-01T23:18:56.995Z,99.10
2018-11-01T23:21:31.464Z,99.30
2018-11-01T23:24:05.778Z,99.20
2018-11-01T23:26:40.344Z,99.20
2018-11-01T23:29:14.843Z,99.20
2018-11-01T23:31:49.183Z,99.10
2018-11-01T23:34:27.325Z,99.10
2018-11-01T23:37:11.406Z,99.00
2018-11-01T23:39:51.370Z,98.90
2018-11-01T23:42:31.587Z,98.90
2018-11-01T23:45:17.091Z,98.80
2018-11-01T23:47:59.911Z,98.90
2018-11-01T23:50:39.696Z,98.90
2018-11-01T23:53:16.728Z,98.90
2018-11-01T23:55:51.562Z,98.80
2018-11-01T23:58:28.330Z,98.70
